sensor_id;sensor_type;location;lat;lon;timestamp;P1;durP1;ratioP1;P2;durP2;ratioP2
28625;SDS011;18905;42.668;23.364;2023-06-26T00:01:30;35.72;;;25.83;;
28625;SDS011;18905;42.668;23.364;2023-06-26T00:03:56;35.58;;;24.27;;
28625;SDS011;18905;42.668;23.364;2023-06-26T00:06:25;36.90;;;24.77;;
28625;SDS011;18905;42.668;23.364;2023-06-26T00:08:52;35.80;;;25.63;;
28625;SDS011;18905;42.668;23.364;2023-06-26T00:11:18;36.15;;;25.65;;
28625;SDS011;18905;42.668;23.364;2023-06-26T00:13:44;31.98;;;23.58;;
28625;SDS011;18905;42.668;23.364;2023-06-26T00:16:10;37.63;;;23.15;;
28625;SDS011;18905;42.668;23.364;2023-06-26T00:18:35;35.08;;;23.05;;
28625;SDS011;18905;42.668;23.364;2023-06-26T00:21:00;32.67;;;21.80;;
28625;SDS011;18905;42.668;23.364;2023-06-26T00:23:26;32.78;;;22.02;;
28625;SDS011;18905;42.668;23.364;2023-06-26T00:25:52;30.15;;;21.65;;
28625;SDS011;18905;42.668;23.364;2023-06-26T00:28:18;31.73;;;21.08;;
28625;SDS011;18905;42.668;23.364;2023-06-26T00:30:43;29.23;;;21.13;;
28625;SDS011;18905;42.668;23.364;2023-06-26T00:33:09;29.77;;;20.63;;
28625;SDS011;18905;42.668;23.364;2023-06-26T00:35:34;28.38;;;20.23;;
28625;SDS011;18905;42.668;23.364;2023-06-26T00:38:00;25.52;;;19.52;;
28625;SDS011;18905;42.668;23.364;2023-06-26T00:40:26;27.40;;;19.50;;
28625;SDS011;18905;42.668;23.364;2023-06-26T00:42:52;24.30;;;19.27;;
28625;SDS011;18905;42.668;23.364;2023-06-26T00:45:18;30.27;;;19.98;;
28625;SDS011;18905;42.668;23.364;2023-06-26T00:47:44;27.75;;;19.92;;
28625;SDS011;18905;42.668;23.364;2023-06-26T00:50:09;29.08;;;20.20;;
28625;SDS011;18905;42.668;23.364;2023-06-26T00:52:35;25.15;;;19.17;;
28625;SDS011;18905;42.668;23.364;2023-06-26T00:55:01;27.40;;;18.23;;
28625;SDS011;18905;42.668;23.364;2023-06-26T00:57:26;25.42;;;18.77;;
28625;SDS011;18905;42.668;23.364;2023-06-26T00:59:52;24.38;;;17.60;;
28625;SDS011;18905;42.668;23.364;2023-06-26T01:02:18;24.45;;;18.20;;
28625;SDS011;18905;42.668;23.364;2023-06-26T01:04:46;25.80;;;17.38;;
28625;SDS011;18905;42.668;23.364;2023-06-26T01:07:13;24.30;;;17.27;;
28625;SDS011;18905;42.668;23.364;2023-06-26T01:09:40;28.20;;;16.73;;
28625;SDS011;18905;42.668;23.364;2023-06-26T01:12:06;26.75;;;17.00;;
28625;SDS011;18905;42.668;23.364;2023-06-26T01:14:31;22.75;;;16.23;;
28625;SDS011;18905;42.668;23.364;2023-06-26T01:16:59;22.65;;;15.90;;
28625;SDS011;18905;42.668;23.364;2023-06-26T01:19:28;22.92;;;15.05;;
28625;SDS011;18905;42.668;23.364;2023-06-26T01:21:59;21.33;;;15.73;;
28625;SDS011;18905;42.668;23.364;2023-06-26T01:24:25;21.92;;;15.52;;
28625;SDS011;18905;42.668;23.364;2023-06-26T01:26:58;24.63;;;17.35;;
28625;SDS011;18905;42.668;23.364;2023-06-26T01:29:25;23.73;;;16.80;;
28625;SDS011;18905;42.668;23.364;2023-06-26T01:31:53;28.23;;;15.80;;
28625;SDS011;18905;42.668;23.364;2023-06-26T01:34:19;22.25;;;16.90;;
28625;SDS011;18905;42.668;23.364;2023-06-26T01:36:45;22.55;;;16.08;;
28625;SDS011;18905;42.668;23.364;2023-06-26T01:39:12;25.48;;;17.20;;
28625;SDS011;18905;42.668;23.364;2023-06-26T01:41:40;24.60;;;16.00;;
28625;SDS011;18905;42.668;23.364;2023-06-26T01:47:05;20.88;;;15.55;;
28625;SDS011;18905;42.668;23.364;2023-06-26T01:54:59;23.50;;;18.00;;
28625;SDS011;18905;42.668;23.364;2023-06-26T01:57:33;21.58;;;16.85;;
28625;SDS011;18905;42.668;23.364;2023-06-26T02:00:00;20.98;;;15.88;;
28625;SDS011;18905;42.668;23.364;2023-06-26T02:02:28;21.75;;;16.73;;
28625;SDS011;18905;42.668;23.364;2023-06-26T02:04:54;21.38;;;17.05;;
28625;SDS011;18905;42.668;23.364;2023-06-26T02:07:19;28.08;;;17.40;;
28625;SDS011;18905;42.668;23.364;2023-06-26T02:09:44;24.83;;;17.70;;
28625;SDS011;18905;42.668;23.364;2023-06-26T02:12:10;24.92;;;16.40;;
28625;SDS011;18905;42.668;23.364;2023-06-26T02:14:36;23.23;;;17.05;;
28625;SDS011;18905;42.668;23.364;2023-06-26T02:17:01;24.83;;;18.25;;
28625;SDS011;18905;42.668;23.364;2023-06-26T02:19:27;21.40;;;16.65;;
28625;SDS011;18905;42.668;23.364;2023-06-26T02:21:53;22.33;;;17.00;;
28625;SDS011;18905;42.668;23.364;2023-06-26T02:24:19;23.90;;;17.63;;
28625;SDS011;18905;42.668;23.364;2023-06-26T02:26:44;19.65;;;16.15;;
28625;SDS011;18905;42.668;23.364;2023-06-26T02:29:11;24.67;;;18.85;;
28625;SDS011;18905;42.668;23.364;2023-06-26T02:31:36;29.20;;;17.98;;
28625;SDS011;18905;42.668;23.364;2023-06-26T02:34:02;24.67;;;17.83;;
28625;SDS011;18905;42.668;23.364;2023-06-26T02:36:27;27.95;;;18.67;;
28625;SDS011;18905;42.668;23.364;2023-06-26T02:38:53;26.00;;;17.88;;
28625;SDS011;18905;42.668;23.364;2023-06-26T02:41:18;21.80;;;18.20;;
28625;SDS011;18905;42.668;23.364;2023-06-26T02:43:43;23.95;;;17.85;;
28625;SDS011;18905;42.668;23.364;2023-06-26T02:46:09;26.13;;;18.65;;
28625;SDS011;18905;42.668;23.364;2023-06-26T02:48:34;26.58;;;18.15;;
28625;SDS011;18905;42.668;23.364;2023-06-26T02:50:59;27.73;;;19.08;;
28625;SDS011;18905;42.668;23.364;2023-06-26T02:53:25;24.85;;;18.95;;
28625;SDS011;18905;42.668;23.364;2023-06-26T02:55:50;28.77;;;20.20;;
28625;SDS011;18905;42.668;23.364;2023-06-26T02:58:16;26.58;;;21.00;;
28625;SDS011;18905;42.668;23.364;2023-06-26T03:00:41;27.25;;;21.48;;
28625;SDS011;18905;42.668;23.364;2023-06-26T03:03:08;28.70;;;21.92;;
28625;SDS011;18905;42.668;23.364;2023-06-26T03:05:34;27.40;;;22.23;;
28625;SDS011;18905;42.668;23.364;2023-06-26T03:07:59;28.02;;;22.25;;
28625;SDS011;18905;42.668;23.364;2023-06-26T03:10:25;28.05;;;22.55;;
28625;SDS011;18905;42.668;23.364;2023-06-26T03:12:50;28.88;;;23.42;;
28625;SDS011;18905;42.668;23.364;2023-06-26T03:15:15;31.50;;;24.55;;
28625;SDS011;18905;42.668;23.364;2023-06-26T03:17:41;33.00;;;23.10;;
28625;SDS011;18905;42.668;23.364;2023-06-26T03:20:06;30.73;;;23.70;;
28625;SDS011;18905;42.668;23.364;2023-06-26T03:22:33;31.05;;;23.90;;
28625;SDS011;18905;42.668;23.364;2023-06-26T03:24:58;28.50;;;23.10;;
28625;SDS011;18905;42.668;23.364;2023-06-26T03:27:24;29.95;;;21.73;;
28625;SDS011;18905;42.668;23.364;2023-06-26T03:29:51;32.65;;;22.45;;
28625;SDS011;18905;42.668;23.364;2023-06-26T03:32:17;27.58;;;22.55;;
28625;SDS011;18905;42.668;23.364;2023-06-26T03:34:43;26.15;;;21.88;;
28625;SDS011;18905;42.668;23.364;2023-06-26T03:37:08;26.70;;;22.50;;
28625;SDS011;18905;42.668;23.364;2023-06-26T03:39:33;29.75;;;23.50;;
28625;SDS011;18905;42.668;23.364;2023-06-26T03:41:59;32.10;;;25.10;;
28625;SDS011;18905;42.668;23.364;2023-06-26T03:44:26;31.83;;;23.08;;
28625;SDS011;18905;42.668;23.364;2023-06-26T03:46:54;30.13;;;23.73;;
28625;SDS011;18905;42.668;23.364;2023-06-26T03:49:19;29.13;;;23.65;;
28625;SDS011;18905;42.668;23.364;2023-06-26T03:51:45;32.28;;;23.40;;
28625;SDS011;18905;42.668;23.364;2023-06-26T03:54:10;30.88;;;23.77;;
28625;SDS011;18905;42.668;23.364;2023-06-26T03:56:36;34.35;;;24.33;;
28625;SDS011;18905;42.668;23.364;2023-06-26T03:59:01;29.30;;;24.05;;
28625;SDS011;18905;42.668;23.364;2023-06-26T04:01:27;30.90;;;23.63;;
28625;SDS011;18905;42.668;23.364;2023-06-26T04:03:52;29.10;;;24.67;;
28625;SDS011;18905;42.668;23.364;2023-06-26T04:06:18;27.38;;;22.75;;
28625;SDS011;18905;42.668;23.364;2023-06-26T04:08:43;30.17;;;22.15;;
28625;SDS011;18905;42.668;23.364;2023-06-26T04:11:09;27.95;;;22.98;;
28625;SDS011;18905;42.668;23.364;2023-06-26T04:13:34;34.60;;;22.40;;
28625;SDS011;18905;42.668;23.364;2023-06-26T04:15:59;26.40;;;21.38;;
28625;SDS011;18905;42.668;23.364;2023-06-26T04:18:25;25.17;;;21.15;;
28625;SDS011;18905;42.668;23.364;2023-06-26T04:21:04;27.60;;;21.50;;
28625;SDS011;18905;42.668;23.364;2023-06-26T04:23:32;25.15;;;20.23;;
28625;SDS011;18905;42.668;23.364;2023-06-26T04:25:58;29.90;;;20.27;;
28625;SDS011;18905;42.668;23.364;2023-06-26T04:28:24;28.10;;;19.50;;
28625;SDS011;18905;42.668;23.364;2023-06-26T04:30:50;28.58;;;20.55;;
28625;SDS011;18905;42.668;23.364;2023-06-26T04:33:15;22.83;;;19.25;;
28625;SDS011;18905;42.668;23.364;2023-06-26T04:35:41;29.35;;;20.38;;
28625;SDS011;18905;42.668;23.364;2023-06-26T04:38:06;29.33;;;20.98;;
28625;SDS011;18905;42.668;23.364;2023-06-26T04:40:31;29.92;;;20.88;;
28625;SDS011;18905;42.668;23.364;2023-06-26T04:42:57;26.20;;;19.75;;
28625;SDS011;18905;42.668;23.364;2023-06-26T04:45:22;27.25;;;20.42;;
28625;SDS011;18905;42.668;23.364;2023-06-26T04:47:47;28.50;;;19.90;;
28625;SDS011;18905;42.668;23.364;2023-06-26T04:50:13;24.35;;;19.63;;
28625;SDS011;18905;42.668;23.364;2023-06-26T04:52:38;21.85;;;18.13;;
28625;SDS011;18905;42.668;23.364;2023-06-26T04:55:04;23.92;;;18.48;;
28625;SDS011;18905;42.668;23.364;2023-06-26T04:57:29;21.27;;;18.80;;
28625;SDS011;18905;42.668;23.364;2023-06-26T04:59:55;21.23;;;16.00;;
28625;SDS011;18905;42.668;23.364;2023-06-26T05:02:20;21.35;;;16.65;;
28625;SDS011;18905;42.668;23.364;2023-06-26T05:04:45;22.15;;;17.02;;
28625;SDS011;18905;42.668;23.364;2023-06-26T05:07:12;23.00;;;16.85;;
28625;SDS011;18905;42.668;23.364;2023-06-26T05:09:37;21.20;;;17.40;;
28625;SDS011;18905;42.668;23.364;2023-06-26T05:12:03;23.67;;;18.52;;
28625;SDS011;18905;42.668;23.364;2023-06-26T05:14:28;26.42;;;18.98;;
28625;SDS011;18905;42.668;23.364;2023-06-26T05:16:54;23.63;;;20.45;;
28625;SDS011;18905;42.668;23.364;2023-06-26T05:19:19;24.90;;;19.23;;
28625;SDS011;18905;42.668;23.364;2023-06-26T05:21:44;26.05;;;18.23;;
28625;SDS011;18905;42.668;23.364;2023-06-26T05:24:10;24.63;;;18.27;;
28625;SDS011;18905;42.668;23.364;2023-06-26T05:26:38;22.17;;;18.30;;
28625;SDS011;18905;42.668;23.364;2023-06-26T05:29:04;23.80;;;18.88;;
28625;SDS011;18905;42.668;23.364;2023-06-26T05:31:30;22.73;;;19.35;;
28625;SDS011;18905;42.668;23.364;2023-06-26T05:33:58;26.90;;;19.27;;
28625;SDS011;18905;42.668;23.364;2023-06-26T05:36:28;25.17;;;19.10;;
28625;SDS011;18905;42.668;23.364;2023-06-26T05:38:54;27.00;;;17.90;;
28625;SDS011;18905;42.668;23.364;2023-06-26T05:41:21;21.90;;;19.08;;
28625;SDS011;18905;42.668;23.364;2023-06-26T05:43:47;29.02;;;18.42;;
28625;SDS011;18905;42.668;23.364;2023-06-26T05:46:12;23.95;;;18.98;;
28625;SDS011;18905;42.668;23.364;2023-06-26T05:48:38;21.15;;;18.58;;
28625;SDS011;18905;42.668;23.364;2023-06-26T05:51:04;24.20;;;18.05;;
28625;SDS011;18905;42.668;23.364;2023-06-26T05:53:30;25.73;;;19.00;;
28625;SDS011;18905;42.668;23.364;2023-06-26T05:55:55;30.52;;;17.67;;
28625;SDS011;18905;42.668;23.364;2023-06-26T05:58:21;20.48;;;17.52;;
28625;SDS011;18905;42.668;23.364;2023-06-26T06:00:50;22.05;;;16.83;;
28625;SDS011;18905;42.668;23.364;2023-06-26T06:03:16;21.08;;;16.42;;
28625;SDS011;18905;42.668;23.364;2023-06-26T06:05:41;22.48;;;18.17;;
28625;SDS011;18905;42.668;23.364;2023-06-26T06:08:07;31.52;;;17.20;;
28625;SDS011;18905;42.668;23.364;2023-06-26T06:10:32;21.75;;;16.38;;
28625;SDS011;18905;42.668;23.364;2023-06-26T06:12:57;21.42;;;16.75;;
28625;SDS011;18905;42.668;23.364;2023-06-26T06:15:23;26.85;;;16.58;;
28625;SDS011;18905;42.668;23.364;2023-06-26T06:17:48;19.85;;;16.30;;
28625;SDS011;18905;42.668;23.364;2023-06-26T06:20:14;25.67;;;16.33;;
28625;SDS011;18905;42.668;23.364;2023-06-26T06:22:39;23.43;;;17.10;;
28625;SDS011;18905;42.668;23.364;2023-06-26T06:25:05;22.50;;;16.38;;
28625;SDS011;18905;42.668;23.364;2023-06-26T06:27:30;20.85;;;16.63;;
28625;SDS011;18905;42.668;23.364;2023-06-26T06:29:56;23.08;;;16.08;;
28625;SDS011;18905;42.668;23.364;2023-06-26T06:32:22;35.33;;;23.38;;
28625;SDS011;18905;42.668;23.364;2023-06-26T06:34:47;34.38;;;22.67;;
28625;SDS011;18905;42.668;23.364;2023-06-26T06:37:12;20.50;;;17.23;;
28625;SDS011;18905;42.668;23.364;2023-06-26T06:39:38;18.90;;;16.20;;
28625;SDS011;18905;42.668;23.364;2023-06-26T06:42:03;23.48;;;16.00;;
28625;SDS011;18905;42.668;23.364;2023-06-26T06:44:29;21.77;;;16.80;;
28625;SDS011;18905;42.668;23.364;2023-06-26T06:46:58;17.77;;;14.65;;
28625;SDS011;18905;42.668;23.364;2023-06-26T06:49:23;17.25;;;14.80;;
28625;SDS011;18905;42.668;23.364;2023-06-26T06:51:49;19.17;;;15.30;;
28625;SDS011;18905;42.668;23.364;2023-06-26T06:54:15;19.38;;;14.07;;
28625;SDS011;18905;42.668;23.364;2023-06-26T06:56:41;17.52;;;13.80;;
28625;SDS011;18905;42.668;23.364;2023-06-26T06:59:07;18.23;;;13.27;;
28625;SDS011;18905;42.668;23.364;2023-06-26T07:01:32;14.25;;;12.40;;
28625;SDS011;18905;42.668;23.364;2023-06-26T07:03:58;14.00;;;11.65;;
28625;SDS011;18905;42.668;23.364;2023-06-26T07:06:23;21.40;;;14.10;;
28625;SDS011;18905;42.668;23.364;2023-06-26T07:08:49;20.75;;;11.25;;
28625;SDS011;18905;42.668;23.364;2023-06-26T07:11:14;23.92;;;14.05;;
28625;SDS011;18905;42.668;23.364;2023-06-26T07:13:40;19.83;;;15.05;;
28625;SDS011;18905;42.668;23.364;2023-06-26T07:16:05;14.38;;;11.23;;
28625;SDS011;18905;42.668;23.364;2023-06-26T07:18:31;13.15;;;11.50;;
28625;SDS011;18905;42.668;23.364;2023-06-26T07:20:56;14.52;;;11.23;;
28625;SDS011;18905;42.668;23.364;2023-06-26T07:23:21;16.50;;;11.35;;
28625;SDS011;18905;42.668;23.364;2023-06-26T07:25:47;16.50;;;11.25;;
28625;SDS011;18905;42.668;23.364;2023-06-26T07:28:12;12.60;;;10.68;;
28625;SDS011;18905;42.668;23.364;2023-06-26T07:30:38;10.88;;;9.50;;
28625;SDS011;18905;42.668;23.364;2023-06-26T07:33:04;14.25;;;9.18;;
28625;SDS011;18905;42.668;23.364;2023-06-26T07:35:29;15.95;;;9.80;;
28625;SDS011;18905;42.668;23.364;2023-06-26T07:37:55;15.57;;;10.23;;
28625;SDS011;18905;42.668;23.364;2023-06-26T07:40:20;15.32;;;9.50;;
28625;SDS011;18905;42.668;23.364;2023-06-26T07:42:46;14.35;;;9.45;;
28625;SDS011;18905;42.668;23.364;2023-06-26T07:45:11;11.95;;;9.68;;
28625;SDS011;18905;42.668;23.364;2023-06-26T07:47:39;13.13;;;9.13;;
28625;SDS011;18905;42.668;23.364;2023-06-26T07:50:05;13.55;;;9.43;;
28625;SDS011;18905;42.668;23.364;2023-06-26T07:52:31;12.35;;;9.07;;
28625;SDS011;18905;42.668;23.364;2023-06-26T07:54:57;13.13;;;8.50;;
28625;SDS011;18905;42.668;23.364;2023-06-26T07:57:22;10.15;;;7.82;;
28625;SDS011;18905;42.668;23.364;2023-06-26T07:59:48;9.80;;;8.45;;
28625;SDS011;18905;42.668;23.364;2023-06-26T08:02:13;18.33;;;8.13;;
28625;SDS011;18905;42.668;23.364;2023-06-26T08:04:39;11.75;;;6.90;;
28625;SDS011;18905;42.668;23.364;2023-06-26T08:07:04;11.02;;;6.55;;
28625;SDS011;18905;42.668;23.364;2023-06-26T08:09:30;13.88;;;7.32;;
28625;SDS011;18905;42.668;23.364;2023-06-26T08:11:56;10.15;;;7.45;;
28625;SDS011;18905;42.668;23.364;2023-06-26T08:14:22;12.07;;;7.90;;
28625;SDS011;18905;42.668;23.364;2023-06-26T08:16:48;11.45;;;7.88;;
28625;SDS011;18905;42.668;23.364;2023-06-26T08:19:14;12.55;;;7.22;;
28625;SDS011;18905;42.668;23.364;2023-06-26T08:21:41;18.30;;;8.52;;
28625;SDS011;18905;42.668;23.364;2023-06-26T08:24:07;22.42;;;9.30;;
28625;SDS011;18905;42.668;23.364;2023-06-26T08:26:33;9.40;;;6.68;;
28625;SDS011;18905;42.668;23.364;2023-06-26T08:28:59;9.25;;;7.20;;
28625;SDS011;18905;42.668;23.364;2023-06-26T08:31:24;9.57;;;6.97;;
28625;SDS011;18905;42.668;23.364;2023-06-26T08:33:49;8.63;;;6.88;;
28625;SDS011;18905;42.668;23.364;2023-06-26T08:36:15;13.80;;;7.30;;
28625;SDS011;18905;42.668;23.364;2023-06-26T08:38:40;9.02;;;6.22;;
28625;SDS011;18905;42.668;23.364;2023-06-26T08:41:06;7.13;;;6.18;;
28625;SDS011;18905;42.668;23.364;2023-06-26T08:43:32;7.80;;;7.00;;
28625;SDS011;18905;42.668;23.364;2023-06-26T08:45:58;9.07;;;6.80;;
28625;SDS011;18905;42.668;23.364;2023-06-26T08:48:24;11.70;;;7.30;;
28625;SDS011;18905;42.668;23.364;2023-06-26T08:50:52;13.40;;;7.63;;
28625;SDS011;18905;42.668;23.364;2023-06-26T08:55:59;11.10;;;6.20;;
28625;SDS011;18905;42.668;23.364;2023-06-26T08:58:26;7.72;;;6.20;;
28625;SDS011;18905;42.668;23.364;2023-06-26T09:00:52;12.25;;;6.18;;
28625;SDS011;18905;42.668;23.364;2023-06-26T09:03:18;8.55;;;6.45;;
28625;SDS011;18905;42.668;23.364;2023-06-26T09:05:44;8.65;;;6.53;;
28625;SDS011;18905;42.668;23.364;2023-06-26T09:08:09;7.55;;;6.68;;
28625;SDS011;18905;42.668;23.364;2023-06-26T09:10:35;10.18;;;7.03;;
28625;SDS011;18905;42.668;23.364;2023-06-26T09:13:00;12.02;;;6.60;;
28625;SDS011;18905;42.668;23.364;2023-06-26T09:15:26;10.75;;;6.55;;
28625;SDS011;18905;42.668;23.364;2023-06-26T09:17:55;7.88;;;6.53;;
28625;SDS011;18905;42.668;23.364;2023-06-26T09:20:22;8.27;;;6.45;;
28625;SDS011;18905;42.668;23.364;2023-06-26T09:22:48;9.38;;;6.57;;
28625;SDS011;18905;42.668;23.364;2023-06-26T09:25:13;7.65;;;5.97;;
28625;SDS011;18905;42.668;23.364;2023-06-26T09:27:39;7.15;;;6.32;;
28625;SDS011;18905;42.668;23.364;2023-06-26T09:30:05;7.07;;;5.97;;
28625;SDS011;18905;42.668;23.364;2023-06-26T09:32:37;7.03;;;6.32;;
28625;SDS011;18905;42.668;23.364;2023-06-26T09:35:03;9.88;;;7.45;;
28625;SDS011;18905;42.668;23.364;2023-06-26T09:37:29;8.75;;;6.38;;
28625;SDS011;18905;42.668;23.364;2023-06-26T09:39:55;16.23;;;7.35;;
28625;SDS011;18905;42.668;23.364;2023-06-26T09:42:20;11.27;;;7.07;;
28625;SDS011;18905;42.668;23.364;2023-06-26T09:44:46;10.63;;;6.57;;
28625;SDS011;18905;42.668;23.364;2023-06-26T09:47:15;11.60;;;8.23;;
28625;SDS011;18905;42.668;23.364;2023-06-26T09:49:42;9.80;;;6.40;;
28625;SDS011;18905;42.668;23.364;2023-06-26T09:52:08;8.88;;;6.68;;
28625;SDS011;18905;42.668;23.364;2023-06-26T09:54:34;14.90;;;7.40;;
28625;SDS011;18905;42.668;23.364;2023-06-26T09:57:07;12.23;;;7.00;;
28625;SDS011;18905;42.668;23.364;2023-06-26T09:59:33;9.75;;;7.45;;
28625;SDS011;18905;42.668;23.364;2023-06-26T10:01:59;17.27;;;9.52;;
28625;SDS011;18905;42.668;23.364;2023-06-26T10:04:25;10.85;;;6.50;;
28625;SDS011;18905;42.668;23.364;2023-06-26T10:06:50;10.30;;;7.25;;
28625;SDS011;18905;42.668;23.364;2023-06-26T10:09:19;13.40;;;7.95;;
28625;SDS011;18905;42.668;23.364;2023-06-26T10:11:47;13.13;;;9.40;;
28625;SDS011;18905;42.668;23.364;2023-06-26T10:14:19;16.52;;;8.88;;
28625;SDS011;18905;42.668;23.364;2023-06-26T10:16:59;14.32;;;6.60;;
28625;SDS011;18905;42.668;23.364;2023-06-26T10:19:26;12.25;;;6.78;;
28625;SDS011;18905;42.668;23.364;2023-06-26T10:21:53;8.60;;;6.20;;
28625;SDS011;18905;42.668;23.364;2023-06-26T10:24:20;16.20;;;8.73;;
28625;SDS011;18905;42.668;23.364;2023-06-26T10:26:49;13.23;;;9.00;;
28625;SDS011;18905;42.668;23.364;2023-06-26T10:29:16;9.70;;;7.65;;
28625;SDS011;18905;42.668;23.364;2023-06-26T10:31:52;15.15;;;9.82;;
28625;SDS011;18905;42.668;23.364;2023-06-26T10:34:21;12.00;;;8.32;;
28625;SDS011;18905;42.668;23.364;2023-06-26T10:36:48;17.42;;;9.32;;
28625;SDS011;18905;42.668;23.364;2023-06-26T10:39:24;8.38;;;7.22;;
28625;SDS011;18905;42.668;23.364;2023-06-26T10:41:50;12.75;;;6.68;;
28625;SDS011;18905;42.668;23.364;2023-06-26T10:44:19;9.57;;;6.63;;
28625;SDS011;18905;42.668;23.364;2023-06-26T10:46:52;16.90;;;7.53;;
28625;SDS011;18905;42.668;23.364;2023-06-26T10:49:25;12.63;;;7.90;;
28625;SDS011;18905;42.668;23.364;2023-06-26T10:51:53;9.30;;;6.82;;
28625;SDS011;18905;42.668;23.364;2023-06-26T10:54:20;10.93;;;6.43;;
28625;SDS011;18905;42.668;23.364;2023-06-26T10:56:49;8.90;;;6.22;;
28625;SDS011;18905;42.668;23.364;2023-06-26T10:59:19;9.27;;;6.38;;
28625;SDS011;18905;42.668;23.364;2023-06-26T11:01:46;11.27;;;6.63;;
28625;SDS011;18905;42.668;23.364;2023-06-26T11:04:42;9.90;;;7.00;;
28625;SDS011;18905;42.668;23.364;2023-06-26T11:07:18;10.85;;;6.93;;
28625;SDS011;18905;42.668;23.364;2023-06-26T11:15:14;7.88;;;6.30;;
28625;SDS011;18905;42.668;23.364;2023-06-26T11:17:41;9.20;;;6.07;;
28625;SDS011;18905;42.668;23.364;2023-06-26T11:20:08;9.90;;;6.50;;
28625;SDS011;18905;42.668;23.364;2023-06-26T11:22:36;9.15;;;6.85;;
28625;SDS011;18905;42.668;23.364;2023-06-26T11:25:03;9.00;;;6.65;;
28625;SDS011;18905;42.668;23.364;2023-06-26T11:27:53;11.57;;;6.88;;
28625;SDS011;18905;42.668;23.364;2023-06-26T11:30:27;8.93;;;6.68;;
28625;SDS011;18905;42.668;23.364;2023-06-26T11:32:52;13.50;;;7.25;;
28625;SDS011;18905;42.668;23.364;2023-06-26T11:35:22;10.05;;;6.60;;
28625;SDS011;18905;42.668;23.364;2023-06-26T11:37:57;9.95;;;6.40;;
28625;SDS011;18905;42.668;23.364;2023-06-26T11:40:29;7.68;;;6.30;;
28625;SDS011;18905;42.668;23.364;2023-06-26T11:43:00;8.90;;;6.15;;
28625;SDS011;18905;42.668;23.364;2023-06-26T11:45:30;10.05;;;6.47;;
28625;SDS011;18905;42.668;23.364;2023-06-26T11:47:57;8.23;;;6.32;;
28625;SDS011;18905;42.668;23.364;2023-06-26T11:50:23;8.57;;;6.40;;
28625;SDS011;18905;42.668;23.364;2023-06-26T11:52:52;9.32;;;6.90;;
28625;SDS011;18905;42.668;23.364;2023-06-26T11:55:19;11.88;;;6.05;;
28625;SDS011;18905;42.668;23.364;2023-06-26T11:57:49;8.02;;;5.95;;
28625;SDS011;18905;42.668;23.364;2023-06-26T12:00:15;11.57;;;6.55;;
28625;SDS011;18905;42.668;23.364;2023-06-26T12:02:42;8.07;;;6.30;;
28625;SDS011;18905;42.668;23.364;2023-06-26T12:05:09;12.20;;;6.55;;
28625;SDS011;18905;42.668;23.364;2023-06-26T12:07:35;10.50;;;6.97;;
28625;SDS011;18905;42.668;23.364;2023-06-26T12:10:02;8.90;;;6.80;;
28625;SDS011;18905;42.668;23.364;2023-06-26T12:12:29;11.23;;;6.57;;
28625;SDS011;18905;42.668;23.364;2023-06-26T12:14:58;12.63;;;6.50;;
28625;SDS011;18905;42.668;23.364;2023-06-26T12:17:25;10.77;;;6.40;;
28625;SDS011;18905;42.668;23.364;2023-06-26T12:19:50;10.50;;;6.68;;
28625;SDS011;18905;42.668;23.364;2023-06-26T12:22:16;7.65;;;6.20;;
28625;SDS011;18905;42.668;23.364;2023-06-26T12:24:43;8.48;;;5.80;;
28625;SDS011;18905;42.668;23.364;2023-06-26T12:27:10;12.52;;;6.45;;
28625;SDS011;18905;42.668;23.364;2023-06-26T12:29:37;10.02;;;6.82;;
28625;SDS011;18905;42.668;23.364;2023-06-26T12:32:10;11.82;;;6.38;;
28625;SDS011;18905;42.668;23.364;2023-06-26T12:34:37;8.88;;;6.22;;
28625;SDS011;18905;42.668;23.364;2023-06-26T12:37:04;9.93;;;6.90;;
28625;SDS011;18905;42.668;23.364;2023-06-26T12:42:21;12.88;;;6.60;;
28625;SDS011;18905;42.668;23.364;2023-06-26T12:44:49;12.20;;;6.30;;
28625;SDS011;18905;42.668;23.364;2023-06-26T12:47:15;9.05;;;6.95;;
28625;SDS011;18905;42.668;23.364;2023-06-26T12:49:43;9.40;;;6.82;;
28625;SDS011;18905;42.668;23.364;2023-06-26T12:52:10;11.75;;;6.28;;
28625;SDS011;18905;42.668;23.364;2023-06-26T12:54:37;14.70;;;6.28;;
28625;SDS011;18905;42.668;23.364;2023-06-26T12:57:04;12.07;;;6.30;;
28625;SDS011;18905;42.668;23.364;2023-06-26T12:59:30;8.00;;;6.20;;
28625;SDS011;18905;42.668;23.364;2023-06-26T13:01:59;11.77;;;6.78;;
28625;SDS011;18905;42.668;23.364;2023-06-26T13:04:25;10.73;;;6.97;;
28625;SDS011;18905;42.668;23.364;2023-06-26T13:06:50;9.93;;;7.38;;
28625;SDS011;18905;42.668;23.364;2023-06-26T13:09:17;7.78;;;6.65;;
28625;SDS011;18905;42.668;23.364;2023-06-26T13:11:42;10.70;;;7.03;;
28625;SDS011;18905;42.668;23.364;2023-06-26T13:14:08;9.45;;;6.93;;
28625;SDS011;18905;42.668;23.364;2023-06-26T13:16:33;13.20;;;7.03;;
28625;SDS011;18905;42.668;23.364;2023-06-26T13:18:59;7.82;;;6.32;;
28625;SDS011;18905;42.668;23.364;2023-06-26T13:21:25;11.55;;;7.13;;
28625;SDS011;18905;42.668;23.364;2023-06-26T13:23:50;9.60;;;6.97;;
28625;SDS011;18905;42.668;23.364;2023-06-26T13:26:16;16.50;;;7.45;;
28625;SDS011;18905;42.668;23.364;2023-06-26T13:28:41;16.65;;;7.38;;
28625;SDS011;18905;42.668;23.364;2023-06-26T13:31:07;10.93;;;6.93;;
28625;SDS011;18905;42.668;23.364;2023-06-26T13:33:32;10.52;;;6.63;;
28625;SDS011;18905;42.668;23.364;2023-06-26T13:35:57;11.05;;;6.55;;
28625;SDS011;18905;42.668;23.364;2023-06-26T13:38:24;10.80;;;6.15;;
28625;SDS011;18905;42.668;23.364;2023-06-26T13:40:54;8.50;;;6.50;;
28625;SDS011;18905;42.668;23.364;2023-06-26T13:43:20;8.25;;;6.30;;
28625;SDS011;18905;42.668;23.364;2023-06-26T13:45:47;10.23;;;6.57;;
28625;SDS011;18905;42.668;23.364;2023-06-26T13:48:13;13.30;;;6.40;;
28625;SDS011;18905;42.668;23.364;2023-06-26T13:50:38;7.90;;;5.97;;
28625;SDS011;18905;42.668;23.364;2023-06-26T13:53:04;7.80;;;6.13;;
28625;SDS011;18905;42.668;23.364;2023-06-26T13:55:29;8.35;;;6.35;;
28625;SDS011;18905;42.668;23.364;2023-06-26T13:57:55;8.27;;;6.28;;
28625;SDS011;18905;42.668;23.364;2023-06-26T14:00:21;8.52;;;5.85;;
28625;SDS011;18905;42.668;23.364;2023-06-26T14:02:47;9.07;;;6.10;;
28625;SDS011;18905;42.668;23.364;2023-06-26T14:05:13;6.95;;;6.22;;
28625;SDS011;18905;42.668;23.364;2023-06-26T14:07:39;8.57;;;6.47;;
28625;SDS011;18905;42.668;23.364;2023-06-26T14:10:05;9.70;;;6.78;;
28625;SDS011;18905;42.668;23.364;2023-06-26T14:12:33;8.65;;;7.05;;
28625;SDS011;18905;42.668;23.364;2023-06-26T14:14:59;11.35;;;6.32;;
28625;SDS011;18905;42.668;23.364;2023-06-26T14:17:25;8.85;;;6.95;;
28625;SDS011;18905;42.668;23.364;2023-06-26T14:19:50;9.95;;;6.53;;
28625;SDS011;18905;42.668;23.364;2023-06-26T14:22:17;10.85;;;6.13;;
28625;SDS011;18905;42.668;23.364;2023-06-26T14:24:42;28.13;;;7.55;;
28625;SDS011;18905;42.668;23.364;2023-06-26T14:27:08;9.18;;;5.82;;
28625;SDS011;18905;42.668;23.364;2023-06-26T14:29:33;12.10;;;6.00;;
28625;SDS011;18905;42.668;23.364;2023-06-26T14:31:58;13.43;;;6.68;;
28625;SDS011;18905;42.668;23.364;2023-06-26T14:34:24;10.50;;;6.82;;